createdAt,value
2023-04-15T00:01:51.913Z,9.00
2023-04-15T00:04:18.745Z,9.00
2023-04-15T00:06:53.033Z,9.00
2023-04-15T00:09:21.486Z,9.00
2023-04-15T00:11:48.260Z,8.90
2023-04-15T00:14:15.523Z,8.90
2023-04-15T00:16:42.245Z,8.90
2023-04-15T00:19:09.012Z,8.90
2023-04-15T00:21:35.871Z,8.90
2023-04-15T00:24:02.565Z,9.00
2023-04-15T00:26:29.258Z,8.80
2023-04-15T00:28:56.086Z,8.80
2023-04-15T00:31:23.016Z,8.70
2023-04-15T00:33:49.896Z,8.70
2023-04-15T00:36:16.662Z,8.70
2023-04-15T00:38:43.346Z,8.70
2023-04-15T00:41:11.212Z,8.70
2023-04-15T00:43:38.266Z,8.70
2023-04-15T00:46:06.596Z,8.70
2023-04-15T00:48:33.422Z,8.70
2023-04-15T00:51:00.177Z,8.60
2023-04-15T00:53:26.884Z,8.60
2023-04-15T00:55:54.445Z,8.60
2023-04-15T00:58:21.233Z,8.60
2023-04-15T01:00:49.126Z,8.60
2023-04-15T01:03:16.256Z,8.60
2023-04-15T01:05:43.127Z,8.60
2023-04-15T01:08:09.862Z,8.60
2023-04-15T01:10:37.782Z,8.60
2023-04-15T01:13:04.567Z,8.50
2023-04-15T01:15:32.061Z,8.50
2023-04-15T01:18:03.205Z,8.50
2023-04-15T01:20:30.272Z,8.50
2023-04-15T01:22:57.078Z,8.50
2023-04-15T01:25:34.701Z,8.50
2023-04-15T01:28:02.099Z,8.40
2023-04-15T01:30:29.144Z,8.40
2023-04-15T01:32:56.065Z,8.50
2023-04-15T01:35:23.925Z,8.40
2023-04-15T01:37:51.211Z,8.40
2023-04-15T01:40:18.017Z,8.40
2023-04-15T01:42:44.760Z,8.40
2023-04-15T01:45:12.349Z,8.40
2023-04-15T01:47:39.353Z,8.40
2023-04-15T01:50:06.908Z,8.50
2023-04-15T01:52:33.775Z,8.40
2023-04-15T01:55:00.595Z,8.40
2023-04-15T01:57:27.381Z,8.40
2023-04-15T01:59:54.113Z,8.50
2023-04-15T02:02:21.074Z,8.40
2023-04-15T02:04:47.837Z,8.40
2023-04-15T02:07:14.561Z,8.40
2023-04-15T02:09:41.376Z,8.30
2023-04-15T02:12:08.096Z,8.30
2023-04-15T02:14:34.924Z,8.30
2023-04-15T02:17:07.194Z,8.20
2023-04-15T02:19:35.407Z,8.20
2023-04-15T02:22:02.528Z,8.10
2023-04-15T02:24:31.611Z,8.10
2023-04-15T02:26:58.329Z,8.00
2023-04-15T02:29:25.390Z,7.90
2023-04-15T02:31:52.122Z,7.90
2023-04-15T02:34:18.862Z,7.90
2023-04-15T02:36:47.461Z,7.80
2023-04-15T02:39:16.729Z,7.80
2023-04-15T02:41:43.883Z,7.80
2023-04-15T02:44:12.893Z,7.80
2023-04-15T02:46:41.142Z,7.80
2023-04-15T02:49:08.520Z,7.80
2023-04-15T02:51:35.456Z,7.80
2023-04-15T02:54:02.293Z,8.10
2023-04-15T02:56:30.128Z,7.80
2023-04-15T02:58:57.263Z,7.80
2023-04-15T03:01:24.076Z,7.70
2023-04-15T03:03:51.069Z,7.70
2023-04-15T03:06:17.840Z,7.70
2023-04-15T03:08:45.309Z,7.70
2023-04-15T03:11:12.582Z,7.70
2023-04-15T03:13:41.693Z,7.60
2023-04-15T03:16:09.189Z,7.60
2023-04-15T03:18:36.252Z,7.60
2023-04-15T03:21:03.189Z,7.60
2023-04-15T03:23:32.085Z,7.50
2023-04-15T03:26:02.424Z,7.50
2023-04-15T03:28:29.993Z,7.40
2023-04-15T03:30:56.859Z,7.40
2023-04-15T03:33:23.575Z,7.40
2023-04-15T03:35:52.292Z,7.30
2023-04-15T03:38:19.137Z,7.30
2023-04-15T03:40:47.097Z,7.20
2023-04-15T03:43:13.875Z,7.20
2023-04-15T03:45:40.574Z,7.10
2023-04-15T03:48:17.253Z,7.10
2023-04-15T03:50:46.073Z,7.00
2023-04-15T03:53:12.974Z,7.00
2023-04-15T03:55:40.101Z,6.90
2023-04-15T03:58:06.912Z,6.90
2023-04-15T04:00:33.631Z,6.90
2023-04-15T04:03:00.688Z,6.90
2023-04-15T04:05:27.581Z,6.90
2023-04-15T04:07:54.284Z,6.80
2023-04-15T04:10:21.150Z,6.80
2023-04-15T04:12:47.848Z,6.80
2023-04-15T04:15:14.553Z,6.90
2023-04-15T04:17:41.292Z,6.90
2023-04-15T04:20:08.654Z,6.90
2023-04-15T04:22:40.038Z,6.90
2023-04-15T04:25:08.558Z,6.90
2023-04-15T04:27:35.354Z,6.90
2023-04-15T04:30:02.150Z,6.90
2023-04-15T04:32:28.937Z,6.90
2023-04-15T04:34:55.924Z,6.90
2023-04-15T04:37:23.531Z,6.90
2023-04-15T04:39:50.629Z,7.00
2023-04-15T04:42:17.335Z,7.00
2023-04-15T04:44:44.026Z,7.00
2023-04-15T04:47:11.384Z,7.00
2023-04-15T04:49:38.178Z,7.10
2023-04-15T04:52:04.966Z,7.10
2023-04-15T04:54:31.805Z,7.10
2023-04-15T04:56:58.553Z,7.10
2023-04-15T04:59:25.480Z,7.10
2023-04-15T05:01:52.688Z,7.10
2023-04-15T05:04:19.454Z,7.10
2023-04-15T05:06:46.432Z,7.10
2023-04-15T05:09:13.132Z,7.10
2023-04-15T05:11:39.870Z,7.00
2023-04-15T05:14:06.845Z,7.10
2023-04-15T05:16:33.589Z,7.00
2023-04-15T05:19:00.568Z,7.10
2023-04-15T05:21:27.652Z,7.10
2023-04-15T05:23:54.496Z,7.10
2023-04-15T05:26:22.046Z,7.20
2023-04-15T05:28:49.575Z,7.30
2023-04-15T05:31:16.739Z,7.40
2023-04-15T05:33:43.718Z,7.40
2023-04-15T05:36:10.458Z,7.50
2023-04-15T05:38:37.308Z,7.70
2023-04-15T05:41:04.338Z,7.80
2023-04-15T05:43:31.509Z,7.90
2023-04-15T05:45:58.219Z,8.10
2023-04-15T05:48:24.912Z,8.30
2023-04-15T05:50:51.579Z,8.50
2023-04-15T05:53:18.305Z,8.60
2023-04-15T05:55:44.991Z,8.90
2023-04-15T05:58:12.496Z,9.10
2023-04-15T06:00:39.877Z,9.30
2023-04-15T06:03:07.832Z,9.60
2023-04-15T06:05:34.671Z,9.80
2023-04-15T06:08:01.911Z,10.00
2023-04-15T06:10:28.638Z,10.10
2023-04-15T06:12:55.512Z,10.30
2023-04-15T06:15:22.856Z,10.40
2023-04-15T06:17:49.588Z,10.50
2023-04-15T06:20:16.462Z,10.50
2023-04-15T06:22:44.541Z,10.60
2023-04-15T06:25:11.288Z,10.70
2023-04-15T06:27:38.058Z,10.80
2023-04-15T06:30:06.388Z,11.00
2023-04-15T06:32:33.302Z,11.10
2023-04-15T06:35:00.174Z,11.20
2023-04-15T06:37:26.954Z,11.40
2023-04-15T06:39:53.675Z,11.60
2023-04-15T06:42:20.414Z,11.80
2023-04-15T06:44:47.130Z,12.00
2023-04-15T06:47:14.689Z,12.30
2023-04-15T06:49:43.047Z,12.50
2023-04-15T06:52:11.310Z,12.70
2023-04-15T06:54:38.015Z,13.00
2023-04-15T06:57:04.721Z,13.20
2023-04-15T06:59:31.707Z,13.50
2023-04-15T07:01:58.518Z,13.90
2023-04-15T07:04:25.610Z,14.20
2023-04-15T07:06:52.397Z,14.60
2023-04-15T07:09:19.782Z,15.00
2023-04-15T07:11:46.516Z,15.40
2023-04-15T07:14:13.274Z,15.70
2023-04-15T07:16:40.101Z,16.00
2023-04-15T07:19:07.337Z,16.30
2023-04-15T07:21:34.045Z,16.60
2023-04-15T07:24:00.720Z,16.70
2023-04-15T07:26:27.430Z,16.80
2023-04-15T07:28:54.110Z,16.80
2023-04-15T07:31:21.114Z,16.70
2023-04-15T07:33:47.895Z,16.70
2023-04-15T07:36:15.390Z,16.70
2023-04-15T07:38:42.502Z,16.70
2023-04-15T07:41:09.489Z,16.80
2023-04-15T07:43:36.164Z,17.00
2023-04-15T07:46:02.959Z,17.10
2023-04-15T07:48:29.691Z,17.30
2023-04-15T07:50:56.438Z,17.40
2023-04-15T07:53:23.144Z,17.50
2023-04-15T07:55:49.838Z,17.70
2023-04-15T07:58:17.355Z,17.80
2023-04-15T08:00:44.655Z,17.90
2023-04-15T08:03:11.809Z,18.10
2023-04-15T08:05:38.673Z,18.20
2023-04-15T08:08:05.448Z,18.40
2023-04-15T08:10:32.308Z,18.70
2023-04-15T08:12:59.115Z,19.10
2023-04-15T08:15:26.577Z,19.40
2023-04-15T08:17:53.368Z,19.80
2023-04-15T08:20:20.678Z,20.00
2023-04-15T08:22:51.725Z,20.30
2023-04-15T08:25:19.864Z,20.50
2023-04-15T08:27:46.604Z,20.70
2023-04-15T08:30:13.960Z,20.90
2023-04-15T08:32:42.589Z,21.00
2023-04-15T08:35:10.355Z,21.20
2023-04-15T08:37:37.082Z,21.30
2023-04-15T08:40:05.031Z,21.30
2023-04-15T08:42:42.376Z,21.40
2023-04-15T08:45:13.900Z,21.40
2023-04-15T08:47:41.749Z,21.40
2023-04-15T08:50:10.655Z,21.40
2023-04-15T08:52:37.629Z,21.60
2023-04-15T08:55:06.003Z,21.60
2023-04-15T08:57:33.785Z,21.50
2023-04-15T09:00:05.650Z,21.50
2023-04-15T09:02:32.864Z,21.30
2023-04-15T09:04:59.648Z,21.30
2023-04-15T09:07:26.990Z,21.40
2023-04-15T09:09:54.101Z,21.50
2023-04-15T09:12:20.823Z,21.60
2023-04-15T09:14:49.342Z,21.70
2023-04-15T09:17:24.684Z,21.80
2023-04-15T09:20:13.463Z,21.90
2023-04-15T09:22:42.219Z,22.00
2023-04-15T09:25:30.082Z,22.10
2023-04-15T09:28:02.845Z,22.10
2023-04-15T09:30:30.144Z,22.10
2023-04-15T09:33:02.955Z,22.10
2023-04-15T09:35:29.702Z,22.20
2023-04-15T09:38:08.751Z,22.20
2023-04-15T09:40:41.171Z,22.30
2023-04-15T09:43:12.806Z,22.50
2023-04-15T09:45:48.210Z,22.60
2023-04-15T09:48:25.385Z,22.60
2023-04-15T09:50:53.603Z,22.70
2023-04-15T09:53:22.544Z,22.70
2023-04-15T09:55:54.738Z,22.80
2023-04-15T09:58:34.828Z,22.70
2023-04-15T10:01:05.055Z,22.70
2023-04-15T10:03:38.686Z,22.80
2023-04-15T10:06:05.666Z,22.70
2023-04-15T10:08:34.819Z,22.90
2023-04-15T10:11:03.609Z,22.90
2023-04-15T10:13:37.090Z,22.70
2023-04-15T10:16:16.910Z,22.60
2023-04-15T10:18:51.364Z,22.40
2023-04-15T10:21:19.719Z,22.20
2023-04-15T10:23:47.664Z,22.00
2023-04-15T10:26:17.495Z,21.80
2023-04-15T10:28:48.289Z,21.50
2023-04-15T10:31:16.827Z,21.20
2023-04-15T10:33:45.847Z,20.90
2023-04-15T10:36:13.710Z,20.60
2023-04-15T10:38:43.164Z,20.60
2023-04-15T10:41:28.085Z,20.20
2023-04-15T10:44:03.394Z,20.00
2023-04-15T10:46:43.338Z,19.80
2023-04-15T10:49:24.259Z,19.70
2023-04-15T10:51:59.242Z,19.50
2023-04-15T10:54:25.870Z,19.30
2023-04-15T10:57:07.006Z,19.30
2023-04-15T10:59:38.730Z,19.20
2023-04-15T11:02:08.968Z,19.10
2023-04-15T11:04:58.582Z,19.00
2023-04-15T11:07:38.451Z,18.90
2023-04-15T11:10:25.449Z,18.80
2023-04-15T11:13:00.006Z,18.60
2023-04-15T11:15:33.707Z,18.60
2023-04-15T11:18:09.204Z,18.70
2023-04-15T11:20:37.390Z,18.80
2023-04-15T11:23:10.836Z,19.00
2023-04-15T11:25:43.622Z,19.30
2023-04-15T11:28:13.175Z,19.60
2023-04-15T11:30:42.343Z,19.50
2023-04-15T11:33:13.773Z,19.70
2023-04-15T11:35:42.563Z,19.70
2023-04-15T11:38:12.873Z,19.70
2023-04-15T11:40:41.596Z,19.70
2023-04-15T11:43:14.545Z,19.70
2023-04-15T11:45:51.402Z,19.70
2023-04-15T11:48:19.978Z,19.80
2023-04-15T11:50:46.778Z,20.00
2023-04-15T11:53:14.159Z,19.90
2023-04-15T11:55:53.308Z,19.70
2023-04-15T11:58:25.427Z,19.70
2023-04-15T12:01:00.154Z,19.70
2023-04-15T12:03:43.318Z,19.60
2023-04-15T12:06:21.632Z,19.50
2023-04-15T12:09:07.060Z,19.50
2023-04-15T12:11:55.372Z,19.50
2023-04-15T12:14:32.083Z,19.50
2023-04-15T12:17:02.003Z,19.50
2023-04-15T12:19:42.921Z,19.50
2023-04-15T12:22:12.727Z,19.40
2023-04-15T12:24:40.369Z,19.40
2023-04-15T12:27:10.891Z,19.40
2023-04-15T12:29:41.714Z,19.30
2023-04-15T12:32:14.258Z,19.30
2023-04-15T12:34:51.795Z,19.30
2023-04-15T12:37:19.427Z,19.30
2023-04-15T12:39:48.999Z,19.30
2023-04-15T12:42:17.419Z,19.40
2023-04-15T12:44:44.275Z,19.40
2023-04-15T12:47:13.389Z,19.50
2023-04-15T12:49:41.148Z,19.50
2023-04-15T12:52:08.125Z,19.60
2023-04-15T12:54:35.933Z,19.60
2023-04-15T12:57:05.531Z,19.70
2023-04-15T12:59:33.488Z,19.70
2023-04-15T13:02:01.175Z,19.70
2023-04-15T13:04:30.701Z,19.60
2023-04-15T13:06:57.717Z,19.60
2023-04-15T13:09:24.450Z,19.60
2023-04-15T13:11:51.346Z,19.50
2023-04-15T13:14:18.076Z,19.50
2023-04-15T13:16:44.809Z,19.40
2023-04-15T13:19:11.509Z,19.40
2023-04-15T13:21:38.213Z,19.40
2023-04-15T13:24:07.088Z,19.50
2023-04-15T13:26:34.299Z,19.50
2023-04-15T13:29:01.852Z,19.40
2023-04-15T13:31:28.710Z,19.30
2023-04-15T13:33:57.037Z,19.10
2023-04-15T13:36:23.798Z,19.00
2023-04-15T13:38:51.583Z,18.80
2023-04-15T13:41:18.828Z,18.60
2023-04-15T13:43:45.568Z,18.50
2023-04-15T13:46:12.343Z,18.40
2023-04-15T13:48:39.196Z,18.30
2023-04-15T13:51:06.293Z,18.30
2023-04-15T13:53:39.177Z,18.30
2023-04-15T13:56:10.264Z,18.20
2023-04-15T13:58:40.855Z,18.10
2023-04-15T14:01:07.733Z,18.60
2023-04-15T14:03:36.590Z,18.00
2023-04-15T14:06:04.807Z,17.90
2023-04-15T14:08:31.695Z,17.80
2023-04-15T14:10:58.730Z,17.80
2023-04-15T14:13:25.537Z,17.70
2023-04-15T14:15:52.328Z,17.60
2023-04-15T14:18:19.073Z,17.50
2023-04-15T14:20:45.973Z,17.40
2023-04-15T14:23:12.987Z,17.30
2023-04-15T14:25:39.754Z,17.20
2023-04-15T14:28:06.533Z,17.10
2023-04-15T14:30:33.510Z,17.10
2023-04-15T14:33:00.387Z,17.00
2023-04-15T14:35:27.337Z,16.90
2023-04-15T14:37:55.631Z,16.90
2023-04-15T14:40:22.689Z,16.90
2023-04-15T14:42:49.571Z,16.90
2023-04-15T14:45:17.523Z,16.90
2023-04-15T14:47:44.532Z,17.00
2023-04-15T14:50:11.409Z,17.00
2023-04-15T14:52:41.249Z,17.00
2023-04-15T14:55:12.836Z,17.00
2023-04-15T14:57:41.857Z,17.00
2023-04-15T15:00:12.195Z,17.00
2023-04-15T15:02:42.118Z,17.00
2023-04-15T15:05:10.693Z,17.10
2023-04-15T15:07:39.287Z,17.10
2023-04-15T15:10:07.044Z,17.20
2023-04-15T15:12:34.209Z,17.20
2023-04-15T15:15:03.094Z,17.30
2023-04-15T15:17:32.128Z,17.30
2023-04-15T15:19:58.988Z,17.40
2023-04-15T15:22:26.065Z,17.50
2023-04-15T15:24:53.578Z,17.50
2023-04-15T15:27:20.783Z,17.50
2023-04-15T15:29:47.617Z,17.50
2023-04-15T15:32:14.381Z,17.40
2023-04-15T15:34:41.220Z,17.30
2023-04-15T15:37:07.922Z,17.30
2023-04-15T15:39:35.994Z,17.20
2023-04-15T15:42:03.050Z,17.20
2023-04-15T15:44:29.763Z,17.20
2023-04-15T15:46:56.496Z,17.20
2023-04-15T15:49:25.239Z,17.10
2023-04-15T15:51:51.987Z,17.10
2023-04-15T15:54:18.725Z,17.00
2023-04-15T15:56:45.492Z,16.90
2023-04-15T15:59:12.196Z,16.80
2023-04-15T16:01:39.137Z,16.70
2023-04-15T16:04:06.000Z,16.60
2023-04-15T16:06:34.863Z,16.60
2023-04-15T16:09:02.284Z,16.50
2023-04-15T16:11:29.838Z,16.50
2023-04-15T16:13:56.689Z,16.50
2023-04-15T16:16:24.235Z,16.50
2023-04-15T16:18:51.072Z,16.50
2023-04-15T16:21:17.921Z,16.40
2023-04-15T16:23:44.787Z,16.40
2023-04-15T16:26:11.553Z,16.40
2023-04-15T16:28:38.243Z,16.40
2023-04-15T16:31:05.308Z,16.40
2023-04-15T16:33:32.592Z,16.40
2023-04-15T16:35:59.387Z,16.40
2023-04-15T16:38:26.154Z,16.40
2023-04-15T16:40:52.889Z,16.40
2023-04-15T16:43:19.831Z,16.40
2023-04-15T16:45:50.750Z,16.40
2023-04-15T16:48:19.428Z,16.40
2023-04-15T16:50:46.496Z,16.40
2023-04-15T16:53:15.300Z,16.30
2023-04-15T16:55:41.997Z,16.30
2023-04-15T16:58:08.712Z,16.30
2023-04-15T17:00:36.925Z,16.30
2023-04-15T17:03:05.444Z,16.20
2023-04-15T17:05:32.622Z,16.10
2023-04-15T17:07:59.590Z,16.10
2023-04-15T17:10:26.685Z,16.00
2023-04-15T17:12:56.299Z,15.90
2023-04-15T17:15:23.486Z,15.90
2023-04-15T17:17:50.436Z,15.80
2023-04-15T17:20:20.316Z,15.80
2023-04-15T17:22:48.656Z,15.70
2023-04-15T17:25:15.600Z,15.70
2023-04-15T17:27:42.362Z,15.60
2023-04-15T17:30:09.927Z,15.60
2023-04-15T17:32:37.138Z,15.50
2023-04-15T17:35:06.370Z,15.50
2023-04-15T17:37:36.256Z,15.40
2023-04-15T17:40:04.375Z,15.40
2023-04-15T17:42:32.688Z,15.30
2023-04-15T17:44:59.373Z,15.20
2023-04-15T17:47:26.083Z,15.10
2023-04-15T17:49:52.866Z,15.10
2023-04-15T17:52:19.619Z,15.00
2023-04-15T17:54:47.188Z,14.90
2023-04-15T17:57:13.958Z,14.80
2023-04-15T17:59:44.001Z,14.80
2023-04-15T18:02:11.651Z,14.70
2023-04-15T18:04:39.140Z,14.60
2023-04-15T18:07:06.487Z,14.50
2023-04-15T18:09:33.275Z,14.50
2023-04-15T18:12:00.069Z,14.40
2023-04-15T18:14:34.262Z,14.30
2023-04-15T18:17:02.971Z,14.70
2023-04-15T18:19:30.926Z,14.20
2023-04-15T18:22:00.220Z,14.20
2023-04-15T18:24:27.816Z,14.20
2023-04-15T18:26:54.629Z,14.20
2023-04-15T18:29:21.465Z,14.50
2023-04-15T18:31:48.410Z,14.10
2023-04-15T18:34:15.212Z,14.10
2023-04-15T18:36:41.928Z,14.30
2023-04-15T18:39:08.713Z,14.00
2023-04-15T18:41:35.543Z,14.00
2023-04-15T18:44:03.485Z,13.90
2023-04-15T18:46:30.333Z,13.90
2023-04-15T18:48:57.109Z,13.90
2023-04-15T18:51:23.892Z,13.90
2023-04-15T18:53:50.703Z,13.80
2023-04-15T18:56:19.541Z,13.80
2023-04-15T18:59:26.963Z,14.10
2023-04-15T19:01:33.169Z,13.80
2023-04-15T19:04:01.995Z,13.70
2023-04-15T19:06:45.575Z,13.70
2023-04-15T19:11:58.649Z,13.70
2023-04-15T19:14:30.720Z,13.80
2023-04-15T19:18:31.840Z,13.60
2023-04-15T19:20:58.701Z,13.60
2023-04-15T19:23:25.628Z,13.60
2023-04-15T19:25:52.589Z,13.50
2023-04-15T19:28:19.613Z,13.80
2023-04-15T19:30:46.417Z,13.50
2023-04-15T19:33:13.360Z,13.50
2023-04-15T19:35:49.797Z,13.40
2023-04-15T19:38:44.044Z,13.40
2023-04-15T19:41:15.898Z,13.40
2023-04-15T19:43:44.442Z,13.30
2023-04-15T19:46:16.018Z,13.30
2023-04-15T19:48:42.932Z,13.30
2023-04-15T19:51:09.746Z,13.20
2023-04-15T19:53:36.715Z,13.20
2023-04-15T19:56:30.736Z,13.60
2023-04-15T19:59:03.898Z,13.10
2023-04-15T20:01:31.486Z,13.00
2023-04-15T20:03:58.583Z,12.90
2023-04-15T20:06:26.673Z,13.10
2023-04-15T20:08:53.396Z,12.80
2023-04-15T20:11:21.273Z,12.70
2023-04-15T20:13:48.106Z,12.70
2023-04-15T20:16:14.840Z,12.50
2023-04-15T20:18:41.579Z,12.50
2023-04-15T20:21:08.325Z,12.40
2023-04-15T20:23:35.888Z,12.30
2023-04-15T20:26:02.777Z,12.30
2023-04-15T20:28:29.580Z,12.30
2023-04-15T20:30:56.338Z,12.20
2023-04-15T20:33:24.633Z,12.20
2023-04-15T20:35:51.705Z,12.20
2023-04-15T20:38:18.670Z,12.20
2023-04-15T20:40:46.005Z,12.10
2023-04-15T20:43:13.190Z,12.10
2023-04-15T20:45:40.102Z,12.00
2023-04-15T20:48:07.071Z,12.40
2023-04-15T20:50:33.891Z,12.10
2023-04-15T20:53:00.838Z,11.90
2023-04-15T20:55:29.560Z,12.10
2023-04-15T20:57:58.245Z,12.20
2023-04-15T21:00:25.086Z,11.80
2023-04-15T21:02:52.071Z,11.80
2023-04-15T21:05:25.517Z,11.80
2023-04-15T21:07:54.062Z,11.80
2023-04-15T21:10:21.471Z,11.00
2023-04-15T21:12:54.298Z,12.10
2023-04-15T21:15:35.990Z,11.60
2023-04-15T21:18:02.949Z,11.60
2023-04-15T21:20:29.888Z,12.00
2023-04-15T21:22:56.896Z,11.20
2023-04-15T21:25:23.772Z,11.80
2023-04-15T21:27:50.790Z,11.40
2023-04-15T21:30:17.656Z,11.60
2023-04-15T21:32:44.451Z,11.50
2023-04-15T21:35:11.305Z,11.40
2023-04-15T21:37:38.083Z,11.50
2023-04-15T21:40:05.889Z,11.50
2023-04-15T21:42:32.714Z,11.50
2023-04-15T21:44:59.584Z,11.50
2023-04-15T21:47:26.391Z,12.00
2023-04-15T21:49:53.341Z,11.40
2023-04-15T21:52:20.218Z,11.60
2023-04-15T21:54:46.972Z,12.00
2023-04-15T21:57:13.972Z,11.60
2023-04-15T21:59:40.968Z,11.60
2023-04-15T22:02:07.874Z,11.60
2023-04-15T22:04:34.746Z,11.50
2023-04-15T22:07:02.386Z,11.50
2023-04-15T22:09:32.633Z,12.00
2023-04-15T22:11:59.981Z,11.50
2023-04-15T22:14:36.266Z,11.20
2023-04-15T22:17:07.119Z,11.50
2023-04-15T22:19:35.723Z,11.50
2023-04-15T22:22:04.804Z,11.90
2023-04-15T22:24:40.760Z,11.50
2023-04-15T22:27:17.733Z,12.00
2023-04-15T22:29:51.755Z,11.10
2023-04-15T22:32:28.304Z,11.50
2023-04-15T22:34:56.030Z,11.50
2023-04-15T22:37:24.018Z,11.50
2023-04-15T22:39:50.879Z,11.50
2023-04-15T22:42:39.004Z,11.50
2023-04-15T22:45:11.009Z,11.40
2023-04-15T22:47:37.931Z,11.40
2023-04-15T22:50:06.295Z,12.00
2023-04-15T22:52:33.172Z,11.40
2023-04-15T22:55:00.060Z,11.40
2023-04-15T22:57:28.280Z,11.40
2023-04-15T22:59:55.258Z,11.40
2023-04-15T23:02:22.318Z,11.80
2023-04-15T23:04:49.203Z,11.40
2023-04-15T23:07:16.221Z,11.40
2023-04-15T23:09:43.017Z,11.40
2023-04-15T23:12:10.132Z,11.40
2023-04-15T23:14:37.082Z,11.30
2023-04-15T23:17:04.048Z,11.40
2023-04-15T23:19:31.072Z,11.90
2023-04-15T23:21:58.135Z,11.90
2023-04-15T23:24:26.858Z,11.80
2023-04-15T23:26:54.892Z,11.40
2023-04-15T23:29:21.915Z,11.50
2023-04-15T23:31:48.751Z,11.20
2023-04-15T23:34:15.612Z,11.90
2023-04-15T23:36:42.508Z,11.40
2023-04-15T23:39:09.589Z,11.40
2023-04-15T23:41:36.732Z,11.30
2023-04-15T23:44:04.028Z,12.00
2023-04-15T23:46:31.026Z,11.40
2023-04-15T23:48:57.872Z,11.40
2023-04-15T23:51:24.724Z,11.40
2023-04-15T23:53:52.413Z,11.70
2023-04-15T23:56:19.242Z,11.40
2023-04-15T23:58:46.080Z,11.40
